createdAt,value
2022-09-03T00:03:00.797Z,22.33
2022-09-03T00:05:45.858Z,22.31
2022-09-03T00:08:33.523Z,22.27
2022-09-03T00:11:18.756Z,22.27
2022-09-03T00:13:52.143Z,22.24
2022-09-03T00:16:25.845Z,22.23
2022-09-03T00:19:00.695Z,22.23
2022-09-03T00:21:45.589Z,22.19
2022-09-03T00:24:18.102Z,22.16
2022-09-03T00:26:55.082Z,22.12
2022-09-03T00:29:35.641Z,22.07
2022-09-03T00:32:14.104Z,22.07
2022-09-03T00:34:52.642Z,22.10
2022-09-03T00:37:21.536Z,22.12
2022-09-03T00:39:49.861Z,22.12
2022-09-03T00:43:02.112Z,22.12
2022-09-03T00:45:48.399Z,22.15
2022-09-03T00:48:28.738Z,22.19
2022-09-03T00:51:00.968Z,22.20
2022-09-03T00:53:52.159Z,22.17
2022-09-03T00:56:43.763Z,22.21
2022-09-03T00:59:35.819Z,22.20
2022-09-03T01:02:29.173Z,22.22
2022-09-03T01:05:16.642Z,22.25
2022-09-03T01:08:02.030Z,22.23
2022-09-03T01:10:34.565Z,22.17
2022-09-03T01:13:21.961Z,22.11
2022-09-03T01:16:06.617Z,22.07
2022-09-03T01:18:58.619Z,22.06
2022-09-03T01:21:49.945Z,22.06
2022-09-03T01:24:59.343Z,22.07
2022-09-03T01:28:20.567Z,22.06
2022-09-03T01:31:26.874Z,22.06
2022-09-03T01:34:01.515Z,22.07
2022-09-03T01:37:23.162Z,22.05
2022-09-03T01:40:31.414Z,22.05
2022-09-03T01:43:20.317Z,21.99
2022-09-03T01:46:00.810Z,21.94
2022-09-03T01:49:16.575Z,21.91
2022-09-03T01:51:45.337Z,21.90
2022-09-03T01:54:35.116Z,21.87
2022-09-03T01:57:35.582Z,21.87
2022-09-03T02:00:22.755Z,21.92
2022-09-03T02:02:53.058Z,21.94
2022-09-03T02:05:25.802Z,21.95
2022-09-03T02:08:14.127Z,21.95
2022-09-03T02:10:53.467Z,21.95
2022-09-03T02:13:27.398Z,21.95
2022-09-03T02:16:02.387Z,21.90
2022-09-03T02:18:37.284Z,21.83
2022-09-03T02:21:07.180Z,21.80
2022-09-03T02:23:35.775Z,21.81
2022-09-03T02:26:04.136Z,21.81
2022-09-03T02:28:33.176Z,21.78
2022-09-03T02:31:01.233Z,21.77
2022-09-03T02:33:40.782Z,21.75
2022-09-03T02:36:16.837Z,21.73
2022-09-03T02:38:46.282Z,21.69
2022-09-03T02:41:15.441Z,21.67
2022-09-03T02:43:54.044Z,21.61
2022-09-03T02:46:32.995Z,21.57
2022-09-03T02:49:00.872Z,21.52
2022-09-03T02:51:37.359Z,21.51
2022-09-03T02:54:06.407Z,21.51
2022-09-03T02:56:34.796Z,21.50
2022-09-03T02:59:05.044Z,21.52
2022-09-03T03:01:33.176Z,21.53
2022-09-03T03:04:01.188Z,21.57
2022-09-03T03:06:29.059Z,21.61
2022-09-03T03:08:57.239Z,21.63
2022-09-03T03:11:26.391Z,21.66
2022-09-03T03:13:54.302Z,21.70
2022-09-03T03:16:22.283Z,21.73
2022-09-03T03:18:50.901Z,21.73
2022-09-03T03:21:19.544Z,21.73
2022-09-03T03:23:47.394Z,21.70
2022-09-03T03:26:18.725Z,21.69
2022-09-03T03:28:49.063Z,21.69
2022-09-03T03:31:20.784Z,21.69
2022-09-03T03:34:00.560Z,21.69
2022-09-03T03:36:32.368Z,21.68
2022-09-03T03:39:01.369Z,21.67
2022-09-03T03:41:33.584Z,21.66
2022-09-03T03:44:06.161Z,21.65
2022-09-03T03:46:39.803Z,21.64
2022-09-03T03:49:08.924Z,21.55
2022-09-03T03:51:37.319Z,21.53
2022-09-03T03:54:05.854Z,21.50
2022-09-03T03:56:35.522Z,21.49
2022-09-03T03:59:04.833Z,21.49
2022-09-03T04:01:32.890Z,21.50
2022-09-03T04:04:00.750Z,21.52
2022-09-03T04:06:29.559Z,21.53
2022-09-03T04:08:57.492Z,21.56
2022-09-03T04:11:26.467Z,21.56
2022-09-03T04:13:54.753Z,21.55
2022-09-03T04:16:27.593Z,21.59
2022-09-03T04:18:56.972Z,21.57
2022-09-03T04:21:30.736Z,21.53
2022-09-03T04:23:58.893Z,21.50
2022-09-03T04:26:33.155Z,21.50
2022-09-03T04:29:09.979Z,21.54
2022-09-03T04:31:39.047Z,21.54
2022-09-03T04:34:07.978Z,21.56
2022-09-03T04:36:37.473Z,21.55
2022-09-03T04:39:05.250Z,21.58
2022-09-03T04:41:33.066Z,21.59
2022-09-03T04:44:00.916Z,21.57
2022-09-03T04:46:33.659Z,21.56
2022-09-03T04:49:02.513Z,21.55
2022-09-03T04:51:31.577Z,21.53
2022-09-03T04:54:02.187Z,21.50
2022-09-03T04:56:33.494Z,21.49
2022-09-03T04:59:08.343Z,21.49
2022-09-03T05:01:39.331Z,21.47
2022-09-03T05:04:08.733Z,21.46
2022-09-03T05:06:37.404Z,21.43
2022-09-03T05:09:06.375Z,21.45
2022-09-03T05:11:34.201Z,21.51
2022-09-03T05:14:02.324Z,21.53
2022-09-03T05:16:31.048Z,21.55
2022-09-03T05:19:00.898Z,21.56
2022-09-03T05:21:30.069Z,21.52
2022-09-03T05:23:59.935Z,21.46
2022-09-03T05:26:31.977Z,21.42
2022-09-03T05:29:03.022Z,21.37
2022-09-03T05:31:32.174Z,21.35
2022-09-03T05:34:04.216Z,21.37
2022-09-03T05:36:35.755Z,21.42
2022-09-03T05:39:05.865Z,21.47
2022-09-03T05:41:34.378Z,21.53
2022-09-03T05:44:04.058Z,21.56
2022-09-03T05:46:33.784Z,21.59
2022-09-03T05:49:04.988Z,21.61
2022-09-03T05:51:35.672Z,21.64
2022-09-03T05:54:04.012Z,21.67
2022-09-03T05:56:33.561Z,21.68
2022-09-03T05:59:06.862Z,21.74
2022-09-03T06:01:38.081Z,21.80
2022-09-03T06:04:10.620Z,21.82
2022-09-03T06:06:43.538Z,21.85
2022-09-03T06:09:15.955Z,21.88
2022-09-03T06:11:45.461Z,21.89
2022-09-03T06:14:15.326Z,21.89
2022-09-03T06:16:46.485Z,21.90
2022-09-03T06:19:14.415Z,21.91
2022-09-03T06:21:44.418Z,21.91
2022-09-03T06:24:18.135Z,21.95
2022-09-03T06:26:46.634Z,21.97
2022-09-03T06:29:15.557Z,21.98
2022-09-03T06:31:43.473Z,21.99
2022-09-03T06:34:12.445Z,21.97
2022-09-03T06:36:43.957Z,22.05
2022-09-03T06:39:11.751Z,22.10
2022-09-03T06:41:40.214Z,22.14
2022-09-03T06:44:11.823Z,22.15
2022-09-03T06:46:44.362Z,22.15
2022-09-03T06:49:13.000Z,22.17
2022-09-03T06:51:41.178Z,22.18
2022-09-03T06:54:11.768Z,22.20
2022-09-03T06:56:42.688Z,22.26
2022-09-03T06:59:14.272Z,22.28
2022-09-03T07:01:45.333Z,22.33
2022-09-03T07:04:20.405Z,22.39
2022-09-03T07:06:48.436Z,22.46
2022-09-03T07:09:18.327Z,22.52
2022-09-03T07:11:48.078Z,22.51
2022-09-03T07:14:21.227Z,22.56
2022-09-03T07:16:50.598Z,22.58
2022-09-03T07:19:18.774Z,22.61
2022-09-03T07:21:50.714Z,22.66
2022-09-03T07:24:22.219Z,22.73
2022-09-03T07:26:50.672Z,22.79
2022-09-03T07:29:21.997Z,22.79
2022-09-03T07:31:51.888Z,22.78
2022-09-03T07:34:25.525Z,22.81
2022-09-03T07:36:54.894Z,22.82
2022-09-03T07:39:22.940Z,22.80
2022-09-03T07:41:50.874Z,22.78
2022-09-03T07:44:20.079Z,22.78
2022-09-03T07:46:50.849Z,22.84
2022-09-03T07:49:22.008Z,22.85
2022-09-03T07:51:52.391Z,22.80
2022-09-03T07:54:21.670Z,22.84
2022-09-03T07:56:49.520Z,22.70
2022-09-03T07:59:17.389Z,22.66
2022-09-03T08:01:45.180Z,22.53
2022-09-03T08:04:13.657Z,22.40
2022-09-03T08:06:42.306Z,22.30
2022-09-03T08:09:13.796Z,22.36
2022-09-03T08:11:47.218Z,22.48
2022-09-03T08:14:19.127Z,22.45
2022-09-03T08:16:48.295Z,22.47
2022-09-03T08:19:18.620Z,22.53
2022-09-03T08:21:47.430Z,22.57
2022-09-03T08:24:18.453Z,22.62
2022-09-03T08:26:51.332Z,22.63
2022-09-03T08:29:20.924Z,22.74
2022-09-03T08:31:48.857Z,22.59
2022-09-03T08:34:17.913Z,22.51
2022-09-03T08:36:47.238Z,22.55
2022-09-03T08:39:15.896Z,22.56
2022-09-03T08:41:49.250Z,22.56
2022-09-03T08:44:47.232Z,22.62
2022-09-03T08:47:33.012Z,22.65
2022-09-03T08:50:26.666Z,22.70
2022-09-03T08:53:04.626Z,22.72
2022-09-03T08:55:36.390Z,22.83
2022-09-03T08:58:10.867Z,22.91
2022-09-03T09:01:17.276Z,22.76
2022-09-03T09:03:48.023Z,22.80
2022-09-03T09:06:50.229Z,22.77
2022-09-03T09:09:36.727Z,22.71
2022-09-03T09:12:44.226Z,22.69
2022-09-03T09:15:52.102Z,22.76
2022-09-03T09:18:41.027Z,23.00
2022-09-03T09:21:32.475Z,22.98
2022-09-03T09:24:08.822Z,23.07
2022-09-03T09:26:43.372Z,23.04
2022-09-03T09:29:13.464Z,23.12
2022-09-03T09:31:44.744Z,23.17
2022-09-03T09:34:12.588Z,23.25
2022-09-03T09:36:49.843Z,23.32
2022-09-03T09:39:32.912Z,23.34
2022-09-03T09:42:11.129Z,23.43
2022-09-03T09:44:42.051Z,23.51
2022-09-03T09:47:34.761Z,23.62
2022-09-03T09:50:04.394Z,23.64
2022-09-03T09:52:32.522Z,23.63
2022-09-03T09:55:14.616Z,23.59
2022-09-03T09:57:42.394Z,23.50
2022-09-03T10:00:18.701Z,23.53
2022-09-03T10:02:54.758Z,23.64
2022-09-03T10:05:27.873Z,23.74
2022-09-03T10:08:04.468Z,23.93
2022-09-03T10:10:43.109Z,24.06
2022-09-03T10:13:25.871Z,24.21
2022-09-03T10:16:03.149Z,24.21
2022-09-03T10:19:12.381Z,24.19
2022-09-03T10:22:23.348Z,24.32
2022-09-03T10:25:01.194Z,24.44
2022-09-03T10:27:30.155Z,24.57
2022-09-03T10:30:00.746Z,24.70
2022-09-03T10:32:50.138Z,24.81
2022-09-03T10:35:31.184Z,24.95
2022-09-03T10:38:10.729Z,25.09
2022-09-03T10:40:53.333Z,25.14
2022-09-03T10:44:00.158Z,25.20
2022-09-03T10:46:38.622Z,25.17
2022-09-03T10:49:53.954Z,25.17
2022-09-03T10:52:38.258Z,25.20
2022-09-03T10:55:48.207Z,25.26
2022-09-03T10:59:04.995Z,25.33
2022-09-03T11:01:52.342Z,25.40
2022-09-03T11:04:54.520Z,25.40
2022-09-03T11:07:30.767Z,25.42
2022-09-03T11:10:21.985Z,25.46
2022-09-03T11:13:41.681Z,25.50
2022-09-03T11:16:27.769Z,25.57
2022-09-03T11:19:16.700Z,25.60
2022-09-03T11:21:45.905Z,25.66
2022-09-03T11:24:26.827Z,25.71
2022-09-03T11:27:15.772Z,25.76
2022-09-03T11:29:54.002Z,25.72
2022-09-03T11:32:41.078Z,25.77
2022-09-03T11:35:28.680Z,25.84
2022-09-03T11:38:16.671Z,25.97
2022-09-03T11:41:00.063Z,26.10
2022-09-03T11:43:30.514Z,26.36
2022-09-03T11:46:13.339Z,26.35
2022-09-03T11:48:48.457Z,26.36
2022-09-03T11:51:25.091Z,26.41
2022-09-03T11:54:00.883Z,26.45
2022-09-03T11:56:31.726Z,26.49
2022-09-03T11:59:17.367Z,26.50
2022-09-03T12:01:59.538Z,26.48
2022-09-03T12:05:09.121Z,26.47
2022-09-03T12:08:09.133Z,26.41
2022-09-03T12:11:14.083Z,26.35
2022-09-03T12:14:27.351Z,26.25
2022-09-03T12:17:22.607Z,26.22
2022-09-03T12:19:57.761Z,26.12
2022-09-03T12:22:31.322Z,26.03
2022-09-03T12:25:15.185Z,25.92
2022-09-03T12:27:46.697Z,25.82
2022-09-03T12:30:21.575Z,25.78
2022-09-03T12:32:51.461Z,25.76
2022-09-03T12:38:18.469Z,25.66
2022-09-03T12:43:38.719Z,25.31
2022-09-03T12:46:15.826Z,24.95
2022-09-03T12:52:33.685Z,24.40
2022-09-03T12:55:33.016Z,24.28
2022-09-03T12:58:25.524Z,24.08
2022-09-03T13:01:26.833Z,23.92
2022-09-03T13:04:24.799Z,23.84
2022-09-03T13:07:44.691Z,23.64
2022-09-03T13:10:30.405Z,23.51
2022-09-03T13:13:18.862Z,23.46
2022-09-03T13:16:36.162Z,23.47
2022-09-03T13:19:34.948Z,23.53
2022-09-03T13:22:35.055Z,23.53
2022-09-03T13:25:42.412Z,23.56
2022-09-03T13:28:50.555Z,23.65
2022-09-03T13:31:44.617Z,23.66
2022-09-03T13:34:20.910Z,23.80
2022-09-03T13:37:34.136Z,23.74
2022-09-03T13:40:29.481Z,23.72
2022-09-03T13:43:13.550Z,23.75
2022-09-03T13:46:18.352Z,23.84
2022-09-03T13:49:06.899Z,23.93
2022-09-03T13:51:51.749Z,24.09
2022-09-03T13:54:49.010Z,24.22
2022-09-03T13:58:02.081Z,24.39
2022-09-03T14:00:55.402Z,24.40
2022-09-03T14:03:54.984Z,24.35
2022-09-03T14:06:59.763Z,24.28
2022-09-03T14:09:57.438Z,24.34
2022-09-03T14:13:10.844Z,24.29
2022-09-03T14:16:14.028Z,24.20
2022-09-03T14:19:12.469Z,24.09
2022-09-03T14:21:55.025Z,24.05
2022-09-03T14:24:43.408Z,23.97
2022-09-03T14:27:11.280Z,23.92
2022-09-03T14:29:50.238Z,23.83
2022-09-03T14:32:29.875Z,23.78
2022-09-03T14:35:17.600Z,23.74
2022-09-03T14:38:13.603Z,23.65
2022-09-03T14:41:00.999Z,23.54
2022-09-03T14:43:56.710Z,23.51
2022-09-03T14:47:09.211Z,23.41
2022-09-03T14:49:47.471Z,23.35
2022-09-03T14:52:30.843Z,23.32
2022-09-03T14:55:36.620Z,23.27
2022-09-03T14:58:19.647Z,23.33
2022-09-03T15:01:15.333Z,23.62
2022-09-03T15:04:34.031Z,24.03
2022-09-03T15:07:12.573Z,24.46
2022-09-03T15:10:05.160Z,24.71
2022-09-03T15:13:10.428Z,24.92
2022-09-03T15:15:41.564Z,25.13
2022-09-03T15:18:47.366Z,25.30
2022-09-03T15:21:32.495Z,25.59
2022-09-03T15:24:17.823Z,25.77
2022-09-03T15:27:10.023Z,25.68
2022-09-03T15:30:08.546Z,25.72
2022-09-03T15:33:13.421Z,25.77
2022-09-03T15:36:01.600Z,25.75
2022-09-03T15:38:41.507Z,25.69
2022-09-03T15:41:41.086Z,25.60
2022-09-03T15:44:41.938Z,25.45
2022-09-03T15:47:53.999Z,25.25
2022-09-03T15:50:38.449Z,25.16
2022-09-03T15:53:58.152Z,24.98
2022-09-03T15:56:47.681Z,24.87
2022-09-03T15:59:42.758Z,24.73
2022-09-03T16:02:28.271Z,24.67
2022-09-03T16:05:10.000Z,24.64
2022-09-03T16:07:38.457Z,24.60
2022-09-03T16:10:30.791Z,24.56
2022-09-03T16:13:32.014Z,24.56
2022-09-03T16:16:23.476Z,24.55
2022-09-03T16:19:12.001Z,24.52
2022-09-03T16:22:05.920Z,24.51
2022-09-03T16:24:54.391Z,24.69
2022-09-03T16:27:47.423Z,24.63
2022-09-03T16:30:40.688Z,24.56
2022-09-03T16:33:33.438Z,24.57
2022-09-03T16:36:24.634Z,24.55
2022-09-03T16:39:26.292Z,24.56
2022-09-03T16:42:37.003Z,24.56
2022-09-03T16:45:17.282Z,24.59
2022-09-03T16:48:02.690Z,24.59
2022-09-03T16:51:05.966Z,24.60
2022-09-03T16:54:19.941Z,24.63
2022-09-03T16:57:24.560Z,24.60
2022-09-03T17:00:09.043Z,24.54
2022-09-03T17:03:03.823Z,24.47
2022-09-03T17:05:43.711Z,24.45
2022-09-03T17:08:40.694Z,24.40
2022-09-03T17:11:51.436Z,24.34
2022-09-03T17:15:04.397Z,24.30
2022-09-03T17:17:43.794Z,24.25
2022-09-03T17:20:36.111Z,24.16
2022-09-03T17:23:06.795Z,24.14
2022-09-03T17:25:49.006Z,24.08
2022-09-03T17:28:49.959Z,24.07
2022-09-03T17:31:55.217Z,24.02
2022-09-03T17:34:55.499Z,23.98
2022-09-03T17:38:02.171Z,23.92
2022-09-03T17:40:48.951Z,23.85
2022-09-03T17:43:45.680Z,23.75
2022-09-03T17:46:51.977Z,23.71
2022-09-03T17:49:49.126Z,23.66
2022-09-03T17:52:33.232Z,23.64
2022-09-03T17:55:28.989Z,23.58
2022-09-03T17:58:22.730Z,23.49
2022-09-03T18:01:05.416Z,23.45
2022-09-03T18:03:54.065Z,23.31
2022-09-03T18:07:06.086Z,23.22
2022-09-03T18:09:46.236Z,23.19
2022-09-03T18:12:30.368Z,23.14
2022-09-03T18:15:25.556Z,23.10
2022-09-03T18:18:26.722Z,23.03
2022-09-03T18:21:24.323Z,22.96
2022-09-03T18:24:40.256Z,22.89
2022-09-03T18:27:48.704Z,22.86
2022-09-03T18:30:35.870Z,22.85
2022-09-03T18:33:22.626Z,22.83
2022-09-03T18:36:09.172Z,22.83
2022-09-03T18:38:58.131Z,22.80
2022-09-03T18:42:04.532Z,22.79
2022-09-03T18:45:24.184Z,22.77
2022-09-03T18:48:22.659Z,22.77
2022-09-03T18:51:55.037Z,22.75
2022-09-03T18:55:09.706Z,22.74
2022-09-03T18:58:36.146Z,22.75
2022-09-03T19:01:53.473Z,22.74
2022-09-03T19:05:07.624Z,22.75
2022-09-03T19:08:25.359Z,22.72
2022-09-03T19:11:53.624Z,22.66
2022-09-03T19:15:13.744Z,22.65
2022-09-03T19:18:26.000Z,22.59
2022-09-03T19:22:00.199Z,22.52
2022-09-03T19:24:49.849Z,22.55
2022-09-03T19:27:57.252Z,22.53
2022-09-03T19:31:10.907Z,22.48
2022-09-03T19:34:34.434Z,22.45
2022-09-03T19:37:44.471Z,22.45
2022-09-03T19:40:47.532Z,22.41
2022-09-03T19:43:51.962Z,22.38
2022-09-03T19:46:53.780Z,22.37
2022-09-03T19:50:13.226Z,22.34
2022-09-03T19:53:25.302Z,22.31
2022-09-03T19:56:19.128Z,22.26
2022-09-03T19:59:16.956Z,22.28
2022-09-03T20:02:05.461Z,22.26
2022-09-03T20:05:03.028Z,22.23
2022-09-03T20:07:50.649Z,22.22
2022-09-03T20:10:25.050Z,22.20
2022-09-03T20:13:14.711Z,22.21
2022-09-03T20:15:51.314Z,22.21
2022-09-03T20:18:52.743Z,22.16
2022-09-03T20:21:26.779Z,22.14
2022-09-03T20:24:01.215Z,22.12
2022-09-03T20:26:31.909Z,22.12
2022-09-03T20:29:05.744Z,22.08
2022-09-03T20:32:22.531Z,22.06
2022-09-03T20:35:19.463Z,22.08
2022-09-03T20:38:01.073Z,22.09
2022-09-03T20:40:59.617Z,22.07
2022-09-03T20:44:22.783Z,22.08
2022-09-03T20:47:25.302Z,22.10
2022-09-03T20:50:48.753Z,22.10
2022-09-03T20:53:33.192Z,22.07
2022-09-03T20:56:12.884Z,21.99
2022-09-03T20:59:02.555Z,21.96
2022-09-03T21:01:52.425Z,21.93
2022-09-03T21:05:01.247Z,21.87
2022-09-03T21:08:03.408Z,21.86
2022-09-03T21:11:08.813Z,21.82
2022-09-03T21:13:50.143Z,21.78
2022-09-03T21:17:25.482Z,21.76
2022-09-03T21:20:30.044Z,21.78
2022-09-03T21:23:28.474Z,21.76
2022-09-03T21:26:15.023Z,21.74
2022-09-03T21:28:53.543Z,21.77
2022-09-03T21:31:59.166Z,21.79
2022-09-03T21:34:41.006Z,21.82
2022-09-03T21:37:14.010Z,21.83
2022-09-03T21:39:51.982Z,21.86
2022-09-03T21:42:48.974Z,21.87
2022-09-03T21:45:40.089Z,21.91
2022-09-03T21:48:22.792Z,21.94
2022-09-03T21:51:00.675Z,21.95
2022-09-03T21:53:39.690Z,21.95
2022-09-03T21:56:30.327Z,21.93
2022-09-03T21:59:19.808Z,21.94
2022-09-03T22:02:37.577Z,21.96
2022-09-03T22:05:06.047Z,21.96
2022-09-03T22:07:53.398Z,21.92
2022-09-03T22:10:40.062Z,21.92
2022-09-03T22:13:38.428Z,21.87
2022-09-03T22:16:33.742Z,21.83
2022-09-03T22:19:01.562Z,21.77
2022-09-03T22:21:44.435Z,21.71
2022-09-03T22:24:24.597Z,21.74
2022-09-03T22:27:22.658Z,21.72
2022-09-03T22:30:11.378Z,21.71
2022-09-03T22:32:59.932Z,21.70
2022-09-03T22:35:59.299Z,21.65
2022-09-03T22:39:22.484Z,21.66
2022-09-03T22:42:10.153Z,21.69
2022-09-03T22:45:23.808Z,21.66
2022-09-03T22:48:10.272Z,21.63
2022-09-03T22:51:06.553Z,21.62
2022-09-03T22:53:46.083Z,21.65
2022-09-03T22:56:23.981Z,21.68
2022-09-03T22:59:07.426Z,21.68
2022-09-03T23:02:06.046Z,21.68
2022-09-03T23:05:21.042Z,21.66
2022-09-03T23:08:14.437Z,21.62
2022-09-03T23:10:54.131Z,21.63
2022-09-03T23:13:42.064Z,21.59
2022-09-03T23:16:37.774Z,21.52
2022-09-03T23:19:46.542Z,21.48
2022-09-03T23:22:41.776Z,21.48
2022-09-03T23:25:33.518Z,21.43
2022-09-03T23:28:09.531Z,21.41
2022-09-03T23:33:05.334Z,21.36
2022-09-03T23:35:56.560Z,21.36
2022-09-03T23:38:51.242Z,21.36
2022-09-03T23:41:43.172Z,21.34
2022-09-03T23:45:15.369Z,21.29
2022-09-03T23:47:51.691Z,21.27
2022-09-03T23:50:52.875Z,21.19
2022-09-03T23:53:37.431Z,21.16
2022-09-03T23:56:34.726Z,21.09
2022-09-03T23:59:28.853Z,21.01
